Time;durP1;ratioP1;P1;durP2;ratioP2;P2;SDS_P1;SDS_P2;PMS_P1;PMS_P2;Temp;Humidity;BMP_temperature;BMP_pressure;BME280_temperature;BME280_humidity;BME280_pressure;Samples;Min_cycle;Max_cycle;Signal;HPM_P1;HPM_P2
2021/03/01 00:00:23;;;;;;;5.90;2.85;;;;;;;4.01;58.06;98804.14;1752467;82;21152;-63
2021/03/01 00:02:53;;;;;;;4.72;3.42;;;;;;;3.99;58.24;98796.16;1753038;82;21203;-62
2021/03/01 00:05:22;;;;;;;4.75;2.37;;;;;;;4.01;58.21;98795.63;1753383;82;21525;-62
2021/03/01 00:07:50;;;;;;;5.65;2.95;;;;;;;3.99;58.33;98782.85;1752768;82;21164;-64
2021/03/01 00:10:25;;;;;;;2.70;2.35;;;;;;;4.00;58.49;98774.23;1714890;84;21236;-63
2021/03/01 00:12:55;;;;;;;;;;;;;;;3.99;58.47;98766.15;1755920;82;21362;-63
2021/03/01 00:15:25;;;;;;;4.53;2.52;;;;;;;3.98;58.96;98768.33;1753369;82;20169;-64
2021/03/01 00:17:53;;;;;;;4.83;2.60;;;;;;;3.95;59.13;98763.81;1753315;82;21160;-67
2021/03/01 00:20:34;;;;;;;7.28;3.50;;;;;;;3.94;59.10;98768.13;1714872;83;21179;-64
2021/03/01 00:23:02;;;;;;;8.05;2.95;;;;;;;3.95;59.10;98758.23;1752768;82;21136;-63
2021/03/01 00:25:31;;;;;;;4.83;2.58;;;;;;;3.94;58.77;98754.44;1714210;83;21160;-63
2021/03/01 00:28:01;;;;;;;4.42;2.58;;;;;;;3.92;59.22;98757.11;1752426;82;21211;-63
2021/03/01 00:30:29;;;;;;;5.08;2.80;;;;;;;3.91;59.81;98751.59;1752677;82;21172;-63
2021/03/01 00:32:58;;;;;;;5.72;2.95;;;;;;;3.88;59.67;98749.20;1752502;82;21132;-63
2021/03/01 00:35:27;;;;;;;3.37;2.37;;;;;;;3.89;59.53;98759.02;1714510;83;21235;-63
2021/03/01 00:37:55;;;;;;;5.40;3.15;;;;;;;3.89;59.32;98766.25;1752555;81;21167;-63
2021/03/01 00:40:23;;;;;;;4.30;3.00;;;;;;;3.88;59.50;98759.47;1752441;82;21189;-63
2021/03/01 00:42:52;;;;;;;4.10;3.00;;;;;;;3.89;59.84;98768.02;1752698;82;21136;-63
2021/03/01 00:45:20;;;;;;;5.33;3.10;;;;;;;3.88;60.59;98765.06;1752568;82;21165;-63
2021/03/01 00:47:48;;;;;;;5.97;3.40;;;;;;;3.90;60.30;98768.36;1752558;82;21568;-63
2021/03/01 00:50:17;;;;;;;6.62;3.30;;;;;;;3.92;59.99;98768.67;1752649;82;21136;-63
2021/03/01 00:52:45;;;;;;;5.85;2.50;;;;;;;3.97;59.89;98769.72;1714393;83;21176;-64
2021/03/01 00:55:16;;;;;;;5.85;2.80;;;;;;;4.01;59.12;98760.45;1752482;82;21172;-63
2021/03/01 00:57:44;;;;;;;3.45;2.80;;;;;;;4.04;60.25;98761.59;1752507;81;21172;-63
2021/03/01 01:00:17;;;;;;;4.60;2.33;;;;;;;4.10;58.99;98752.70;1751911;82;21156;-63
2021/03/01 01:02:47;;;;;;;3.45;2.10;;;;;;;4.15;59.01;98754.12;1751975;82;21639;-63
2021/03/01 01:05:54;;;;;;;3.85;2.17;;;;;;;4.31;58.37;98748.98;1838610;77;26956;-63
2021/03/01 01:11:05;;;;;;;2.33;1.60;;;;;;;4.37;57.88;98745.22;1708342;83;21656;-63
2021/03/01 01:13:34;;;;;;;8.65;2.58;;;;;;;4.45;58.36;98747.75;1705347;83;21200;-63
2021/03/01 01:16:02;;;;;;;3.05;2.22;;;;;;;4.51;58.38;98744.02;1706997;84;21184;-63
2021/03/01 01:18:30;;;;;;;3.12;2.00;;;;;;;4.55;58.51;98745.50;1694555;84;21204;-68
2021/03/01 01:21:01;;;;;;;3.77;2.08;;;;;;;4.60;58.27;98749.45;1695210;84;21168;-63
2021/03/01 01:23:29;;;;;;;2.80;1.82;;;;;;;4.65;57.36;98747.91;1699398;84;21179;-63
2021/03/01 01:25:57;;;;;;;4.80;2.42;;;;;;;4.68;57.54;98755.45;1702310;84;21219;-64
2021/03/01 01:28:25;;;;;;;2.98;1.65;;;;;;;4.71;56.99;98755.27;1690058;84;21190;-63
2021/03/01 01:30:53;;;;;;;3.37;2.22;;;;;;;4.72;58.46;98756.48;1707363;84;21172;-69
2021/03/01 01:33:21;;;;;;;8.63;2.75;;;;;;;4.77;57.25;98768.64;1706571;84;21192;-61
2021/03/01 01:35:49;;;;;;;3.08;1.95;;;;;;;4.81;56.83;98767.17;1695794;84;21148;-62
2021/03/01 01:38:17;;;;;;;3.92;2.40;;;;;;;4.85;55.91;98776.38;1683012;84;21184;-61
2021/03/01 01:40:46;;;;;;;3.02;1.37;;;;;;;4.89;56.34;98781.72;1692533;83;21553;-61
2021/03/01 01:43:14;;;;;;;6.40;1.72;;;;;;;4.95;56.56;98789.08;1682273;84;21170;-61
2021/03/01 01:45:42;;;;;;;3.92;1.87;;;;;;;5.01;56.24;98781.02;1695396;84;21163;-62
2021/03/01 01:48:12;;;;;;;3.67;1.98;;;;;;;5.07;55.76;98780.66;1689470;84;21187;-62
2021/03/01 01:50:41;;;;;;;4.60;2.35;;;;;;;5.10;56.50;98783.88;1706218;83;21148;-61
2021/03/01 01:53:09;;;;;;;2.77;1.62;;;;;;;5.14;55.87;98785.36;1705365;83;21188;-61
2021/03/01 01:55:37;;;;;;;4.80;2.25;;;;;;;5.17;55.49;98781.80;1712725;83;21219;-61
2021/03/01 01:58:06;;;;;;;3.75;1.55;;;;;;;5.19;56.09;98783.81;1708670;83;21191;-61
2021/03/01 02:00:46;;;;;;;4.60;1.85;;;;;;;5.22;55.28;98790.89;1709774;83;21178;-61
2021/03/01 02:03:55;;;;;;;3.72;2.35;;;;;;;5.26;55.92;98784.65;1697530;83;21647;-62
2021/03/01 02:06:47;;;;;;;3.92;2.27;;;;;;;5.30;55.79;98795.59;1691359;84;21164;-63
2021/03/01 02:13:02;;;;;;;4.28;1.72;;;;;;;5.33;55.24;98788.17;1725439;82;21572;-68
2021/03/01 02:15:54;;;;;;;2.40;1.52;;;;;;;5.35;55.22;98787.61;1717636;82;21205;-64
2021/03/01 02:18:23;;;;;;;4.83;1.67;;;;;;;5.35;55.94;98788.89;1713274;82;21588;-63
2021/03/01 02:20:51;;;;;;;2.62;1.55;;;;;;;5.34;56.04;98785.94;1723021;82;21164;-62
2021/03/01 02:23:21;;;;;;;2.37;1.25;;;;;;;5.34;56.70;98793.67;1748321;82;21175;-63
2021/03/01 02:26:17;;;;;;;3.40;2.20;;;;;;;5.35;56.35;98804.34;1737847;82;21167;-63
2021/03/01 02:28:50;;;;;;;4.47;1.62;;;;;;;5.35;56.06;98790.18;1687870;84;21558;-62
2021/03/01 02:31:21;;;;;;;5.70;2.15;;;;;;;5.34;57.06;98793.67;1702089;84;21164;-63
2021/03/01 02:33:57;;;;;;;3.08;1.72;;;;;;;5.32;57.12;98804.53;1693262;84;21234;-63
2021/03/01 02:36:31;;;;;;;4.97;2.08;;;;;;;5.29;58.00;98800.86;1717718;83;21174;-62
2021/03/01 02:39:04;;;;;;;8.35;2.55;;;;;;;5.23;58.32;98805.44;1720979;83;21508;-63
2021/03/01 02:41:34;;;;;;;3.50;1.40;;;;;;;5.21;57.76;98805.17;1714348;82;21179;-63
2021/03/01 02:44:24;;;;;;;2.33;1.47;;;;;;;5.17;58.96;98805.80;1712384;82;21148;-62
2021/03/01 02:46:53;;;;;;;6.97;2.85;;;;;;;5.12;59.70;98809.55;1687202;83;21478;-63
2021/03/01 02:49:21;;;;;;;5.40;2.92;;;;;;;5.06;59.99;98804.73;1698981;82;21578;-63
2021/03/01 02:51:51;;;;;;;3.30;2.35;;;;;;;5.00;60.62;98812.37;1654293;87;21195;-63
2021/03/01 02:54:23;;;;;;;3.42;1.92;;;;;;;4.93;62.16;98811.52;1690739;84;21206;-63
2021/03/01 02:56:52;;;;;;;4.72;2.33;;;;;;;4.86;62.63;98804.61;1687407;84;21151;-63
2021/03/01 02:59:23;;;;;;;3.72;1.72;;;;;;;4.82;62.32;98819.02;1677902;83;21255;-64
2021/03/01 03:01:54;;;;;;;7.47;1.85;;;;;;;4.77;62.22;98819.27;1673631;83;21130;-63
2021/03/01 03:04:23;;;;;;;3.65;1.90;;;;;;;4.72;63.68;98832.84;1680678;83;21197;-63
2021/03/01 03:06:54;;;;;;;4.00;2.00;;;;;;;4.69;63.33;98830.44;1657381;85;21191;-63
2021/03/01 03:09:24;;;;;;;3.60;1.85;;;;;;;4.64;62.99;98828.12;1644794;84;21176;-63
2021/03/01 03:11:55;;;;;;;3.35;1.80;;;;;;;4.60;64.42;98838.20;1646513;86;21200;-63
2021/03/01 03:14:33;;;;;;;3.87;2.02;;;;;;;4.54;63.07;98831.29;1653963;85;21205;-63
2021/03/01 03:17:03;;;;;;;3.12;1.57;;;;;;;4.47;65.74;98841.55;1656222;84;21155;-63
2021/03/01 03:19:53;;;;;;;2.22;1.62;;;;;;;4.42;64.19;98843.08;1689414;84;21171;-63
2021/03/01 03:22:21;;;;;;;3.83;2.47;;;;;;;4.37;65.01;98840.37;1677427;85;21224;-63
2021/03/01 03:24:50;;;;;;;6.35;2.47;;;;;;;4.31;66.24;98850.55;1679945;85;21625;-61
2021/03/01 03:27:18;;;;;;;4.67;2.22;;;;;;;4.24;67.53;98841.50;1676977;85;21603;-62
2021/03/01 03:29:49;;;;;;;4.25;2.27;;;;;;;4.20;66.29;98842.58;1671210;85;21239;-62
2021/03/01 03:32:17;;;;;;;5.80;2.33;;;;;;;4.13;68.64;98836.91;1672601;85;21159;-63
2021/03/01 03:34:45;;;;;;;3.67;2.17;;;;;;;4.09;66.37;98840.55;1670478;84;21628;-64
2021/03/01 03:37:22;;;;;;;5.28;3.05;;;;;;;4.05;66.42;98839.50;1671261;85;21687;-63
2021/03/01 03:39:55;;;;;;;5.92;2.60;;;;;;;3.99;66.37;98838.11;1678680;84;21200;-61
2021/03/01 03:42:28;;;;;;;5.40;2.45;;;;;;;3.92;69.66;98835.94;1655519;86;21605;-64
2021/03/01 03:44:58;;;;;;;3.98;2.58;;;;;;;3.86;68.21;98831.94;1669959;85;21196;-64
2021/03/01 03:47:27;;;;;;;5.92;2.15;;;;;;;3.81;69.60;98830.08;1686995;84;21206;-62
2021/03/01 03:50:00;;;;;;;2.67;1.82;;;;;;;3.77;69.08;98838.38;1677318;85;21600;-62
2021/03/01 03:52:32;;;;;;;5.05;3.17;;;;;;;3.74;67.86;98833.40;1678474;84;21661;-63
2021/03/01 03:55:07;;;;;;;5.45;2.62;;;;;;;3.70;69.61;98830.61;1681917;85;21199;-63
2021/03/01 03:57:38;;;;;;;4.67;2.25;;;;;;;3.68;68.39;98830.33;1695568;83;21206;-62
2021/03/01 04:00:12;;;;;;;9.70;3.25;;;;;;;3.66;67.91;98834.70;1692441;83;21223;-62
2021/03/01 04:02:43;;;;;;;10.20;4.08;;;;;;;3.63;68.08;98836.14;1695252;84;21173;-62
2021/03/01 04:05:15;;;;;;;9.98;3.65;;;;;;;3.60;69.73;98835.86;1671669;85;21161;-63
2021/03/01 04:08:04;;;;;;;10.28;3.27;;;;;;;3.60;70.09;98838.88;1656958;85;21280;-62
2021/03/01 04:10:34;;;;;;;8.40;3.70;;;;;;;3.57;69.49;98842.44;1648088;86;21192;-63
2021/03/01 04:13:07;;;;;;;5.97;3.42;;;;;;;3.57;69.75;98842.44;1667326;85;21250;-63
2021/03/01 04:15:42;;;;;;;9.83;2.77;;;;;;;3.57;69.82;98842.89;1695495;84;21182;-62
2021/03/01 04:18:12;;;;;;;6.83;3.67;;;;;;;3.57;68.55;98847.58;1693423;83;21188;-60
2021/03/01 04:20:41;;;;;;;3.52;2.22;;;;;;;3.56;69.77;98854.06;1702271;83;21143;-65
2021/03/01 04:23:11;;;;;;;4.97;2.80;;;;;;;3.54;70.09;98858.47;1673803;84;21194;-62
2021/03/01 04:25:42;;;;;;;6.90;2.98;;;;;;;3.52;68.72;98856.41;1677946;85;21139;-61
2021/03/01 04:28:14;;;;;;;5.03;2.55;;;;;;;3.47;72.86;98864.34;1676084;84;21219;-62
2021/03/01 04:30:43;;;;;;;7.67;2.75;;;;;;;3.44;72.30;98857.25;1677217;84;21258;-62
2021/03/01 04:33:13;;;;;;;5.92;2.92;;;;;;;3.43;73.45;98862.83;1676934;85;21166;-63
2021/03/01 04:35:44;;;;;;;7.58;3.33;;;;;;;3.39;73.83;98859.20;1674819;85;21175;-62
2021/03/01 04:38:14;;;;;;;13.58;5.22;;;;;;;3.39;72.12;98860.48;1682591;84;21209;-61
2021/03/01 04:40:42;;;;;;;16.05;8.25;;;;;;;3.29;77.78;98858.84;1658614;85;21197;-63
2021/03/01 04:43:15;;;;;;;20.00;8.70;;;;;;;3.27;75.73;98869.17;1678533;84;21192;-62
2021/03/01 04:45:44;;;;;;;10.63;5.87;;;;;;;3.31;74.60;98874.54;1674661;84;21165;-63
2021/03/01 04:48:16;;;;;;;8.35;4.87;;;;;;;3.34;73.54;98865.42;1675195;84;21224;-63
2021/03/01 04:50:50;;;;;;;17.07;9.40;;;;;;;3.31;77.32;98869.41;1674186;85;21186;-63
2021/03/01 04:53:19;;;;;;;6.33;3.72;;;;;;;3.36;76.59;98861.48;1665076;85;21162;-68
2021/03/01 04:55:48;;;;;;;7.00;3.45;;;;;;;3.36;75.54;98862.77;1670807;84;21177;-63
2021/03/01 04:58:18;;;;;;;5.08;3.20;;;;;;;3.38;76.74;98862.25;1675880;84;21237;-67
2021/03/01 05:00:47;;;;;;;4.75;3.27;;;;;;;3.42;76.64;98863.77;1677925;85;21598;-68
2021/03/01 05:03:15;;;;;;;6.17;3.52;;;;;;;3.46;76.80;98869.57;1670728;84;21206;-67
2021/03/01 05:05:44;;;;;;;5.97;2.60;;;;;;;3.40;78.55;98873.70;1689066;84;21202;-63
2021/03/01 05:08:16;;;;;;;4.08;2.42;;;;;;;3.35;79.03;98884.20;1664690;85;21166;-66
2021/03/01 05:10:46;;;;;;;4.10;2.70;;;;;;;3.38;80.13;98880.22;1652251;85;21214;-62
2021/03/01 05:13:14;;;;;;;5.90;2.80;;;;;;;3.47;78.79;98882.77;1659925;85;21205;-63
2021/03/01 05:18:43;;;;;;;4.70;3.00;;;;;;;3.54;78.52;98891.84;1733121;81;21191;-63
2021/03/01 05:21:14;;;;;;;4.97;2.77;;;;;;;3.49;78.60;98880.52;1724374;82;21219;-61
2021/03/01 05:23:44;;;;;;;3.35;2.60;;;;;;;3.48;78.67;98880.58;1724720;82;21197;-62
2021/03/01 05:26:13;;;;;;;4.37;3.02;;;;;;;3.48;77.81;98876.28;1724987;82;21207;-61
2021/03/01 05:28:41;;;;;;;5.72;2.47;;;;;;;3.42;79.19;98888.16;1725514;82;21189;-72
2021/03/01 05:31:09;;;;;;;3.90;2.40;;;;;;;3.49;80.53;98889.50;1725412;82;21613;-75
2021/03/01 05:33:38;;;;;;;3.85;2.80;;;;;;;3.70;81.06;98889.70;1725468;82;21171;-72
2021/03/01 05:36:06;;;;;;;4.45;1.70;;;;;;;3.74;79.66;98887.80;1726196;82;21305;-70
2021/03/01 05:38:34;;;;;;;2.92;2.25;;;;;;;3.98;79.77;98887.00;1726471;82;21156;-73
2021/03/01 05:41:04;;;;;;;3.20;2.10;;;;;;;4.23;78.42;98893.38;1725354;82;21204;-74
2021/03/01 05:43:48;;;;;;;2.92;2.20;;;;;;;4.45;76.71;98896.08;1725305;82;21140;-73
2021/03/01 05:46:29;;;;;;;3.25;2.22;;;;;;;4.57;76.39;98905.27;1725574;82;21636;-75
2021/03/01 05:48:59;;;;;;;3.40;2.50;;;;;;;4.65;76.22;98899.25;1713321;83;21680;-74
2021/03/01 05:51:29;;;;;;;2.87;1.82;;;;;;;4.68;75.52;98891.81;1725519;82;21612;-65
2021/03/01 05:56:58;;;;;;;2.25;1.62;;;;;;;4.83;73.04;98901.26;1660164;84;21121;-63
2021/03/01 05:59:27;;;;;;;4.70;2.22;;;;;;;4.74;73.04;98903.91;1665596;84;21182;-63
2021/03/01 06:01:57;;;;;;;8.40;2.95;;;;;;;4.69;72.67;98908.91;1664343;86;21576;-62
2021/03/01 06:04:28;;;;;;;3.90;2.65;;;;;;;4.60;73.46;98905.54;1721980;82;21172;-67
2021/03/01 06:06:56;;;;;;;9.23;4.12;;;;;;;4.52;73.78;98912.84;1721191;83;21159;-63
2021/03/01 06:09:25;;;;;;;8.50;4.72;;;;;;;4.31;75.20;98912.25;1684641;84;21164;-63
2021/03/01 06:11:55;;;;;;;11.88;4.92;;;;;;;4.28;75.27;98922.22;1711152;83;21663;-63
2021/03/01 06:14:43;;;;;;;12.68;6.42;;;;;;;4.27;74.28;98924.89;1720472;83;21151;-62
2021/03/01 06:17:41;;;;;;;10.95;4.70;;;;;;;4.18;75.18;98931.34;1667031;86;21238;-63
2021/03/01 06:20:11;;;;;;;9.18;5.25;;;;;;;4.18;74.82;98927.48;1614271;88;21223;-61
2021/03/01 06:22:44;;;;;;;11.68;4.70;;;;;;;4.20;74.78;98941.55;1616787;89;21195;-64
2021/03/01 06:25:18;;;;;;;10.70;5.67;;;;;;;4.18;74.91;98937.77;1616913;88;21196;-64
2021/03/01 06:28:01;;;;;;;6.85;4.87;;;;;;;3.93;76.86;98948.91;1616574;88;21635;-64
2021/03/01 06:30:35;;;;;;;6.97;3.60;;;;;;;4.04;73.30;98958.22;1603239;88;21214;-64
2021/03/01 06:33:16;;;;;;;7.08;3.60;;;;;;;4.05;72.67;98952.59;1628849;88;21195;-63
2021/03/01 06:35:54;;;;;;;4.33;2.70;;;;;;;4.06;72.65;98956.84;1603192;89;21162;-63
2021/03/01 06:38:30;;;;;;;6.35;2.00;;;;;;;4.06;72.77;98967.11;1601201;89;21205;-61
2021/03/01 06:41:19;;;;;;;4.22;2.47;;;;;;;4.06;71.46;98961.52;1623305;86;21199;-62
2021/03/01 06:43:58;;;;;;;4.22;3.17;;;;;;;4.08;71.20;98963.58;1601530;89;21626;-63
2021/03/01 06:46:30;;;;;;;6.60;3.98;;;;;;;4.10;71.76;98971.20;1599431;89;21230;-62
2021/03/01 06:49:18;;;;;;;8.15;3.65;;;;;;;4.02;74.52;98972.03;1629730;87;21195;-61
2021/03/01 06:51:47;;;;;;;4.42;2.60;;;;;;;4.09;73.86;98975.95;1602791;89;21206;-64
2021/03/01 06:54:24;;;;;;;4.72;2.52;;;;;;;4.10;71.74;98972.03;1602153;89;21203;-63
2021/03/01 06:56:52;;;;;;;5.72;2.85;;;;;;;4.12;71.49;98974.08;1633524;86;21224;-63
2021/03/01 06:59:21;;;;;;;4.10;3.22;;;;;;;4.08;73.54;98964.87;1628639;86;21229;-63
2021/03/01 07:01:58;;;;;;;10.63;3.65;;;;;;;4.04;74.63;98964.64;1628399;86;21182;-63
2021/03/01 07:04:32;;;;;;;19.25;5.25;;;;;;;4.09;73.59;98967.79;1628318;86;21166;-63
2021/03/01 07:07:02;;;;;;;11.60;6.25;;;;;;;4.14;73.73;98971.42;1628477;86;21190;-63
2021/03/01 07:09:32;;;;;;;8.08;4.47;;;;;;;4.15;74.25;98966.20;1624684;86;21261;-63
2021/03/01 07:12:02;;;;;;;4.72;2.87;;;;;;;4.22;73.43;98968.84;1628670;86;21193;-63
2021/03/01 07:14:30;;;;;;;8.35;3.85;;;;;;;4.28;73.06;98976.67;1627844;86;21198;-63
2021/03/01 07:17:00;;;;;;;5.67;2.65;;;;;;;4.27;73.69;98978.44;1628556;86;21257;-63
2021/03/01 07:19:32;;;;;;;5.97;3.60;;;;;;;4.32;73.23;98990.23;1628515;87;21606;-63
2021/03/01 07:22:04;;;;;;;5.25;2.98;;;;;;;4.26;73.84;98993.94;1628758;86;21268;-64
2021/03/01 07:24:34;;;;;;;7.90;3.77;;;;;;;4.34;73.43;98997.39;1617192;88;21178;-63
2021/03/01 07:27:05;;;;;;;6.00;2.62;;;;;;;4.38;72.80;99002.76;1628375;86;21236;-64
2021/03/01 07:29:39;;;;;;;7.85;3.62;;;;;;;4.48;72.23;99004.77;1628410;86;21586;-63
2021/03/01 07:32:10;;;;;;;5.22;3.25;;;;;;;4.53;73.14;99014.82;1628623;86;21203;-64
2021/03/01 07:34:40;;;;;;;7.60;3.17;;;;;;;4.63;72.40;99013.45;1628694;86;21273;-66
2021/03/01 07:37:08;;;;;;;11.03;3.12;;;;;;;4.69;72.21;99024.24;1628763;86;21221;-63
2021/03/01 07:39:38;;;;;;;6.25;3.25;;;;;;;4.80;71.09;99026.25;1615237;88;21174;-63
2021/03/01 07:44:54;;;;;;;5.92;2.52;;;;;;;5.00;71.24;99014.44;1643347;86;21224;-63
2021/03/01 07:47:30;;;;;;;4.92;2.87;;;;;;;5.18;69.85;99021.61;1641536;86;21229;-62
2021/03/01 07:49:59;;;;;;;5.03;2.75;;;;;;;5.35;69.60;99019.41;1642858;86;21205;-63
2021/03/01 07:52:33;;;;;;;5.55;2.85;;;;;;;5.39;69.48;99021.73;1655740;86;21275;-62
2021/03/01 07:55:11;;;;;;;4.85;2.50;;;;;;;5.44;69.20;99027.92;1673015;84;21275;-63
2021/03/01 07:57:41;;;;;;;5.10;3.02;;;;;;;5.46;69.20;99033.81;1671921;84;21240;-62
2021/03/01 08:03:35;;;;;;;3.77;2.25;;;;;;;5.71;67.53;99020.78;1685347;83;21154;-63
2021/03/01 08:06:05;;;;;;;3.65;2.02;;;;;;;5.82;68.00;99029.64;1686872;83;21175;-62
2021/03/01 08:08:49;;;;;;;3.02;2.12;;;;;;;5.97;67.31;99029.62;1674837;85;21195;-63
2021/03/01 08:11:42;;;;;;;4.78;3.15;;;;;;;6.13;66.84;99032.98;1686363;83;21202;-62
2021/03/01 08:14:35;;;;;;;2.92;2.40;;;;;;;6.31;66.49;99033.65;1674345;86;21235;-62
2021/03/01 08:17:28;;;;;;;2.47;1.80;;;;;;;6.49;65.83;99028.72;1685678;84;21202;-63
2021/03/01 08:20:14;;;;;;;5.10;2.20;;;;;;;6.61;64.80;99032.31;1674052;85;21235;-66
2021/03/01 08:23:10;;;;;;;4.62;3.15;;;;;;;6.68;64.56;99031.85;1686039;84;21168;-63
2021/03/01 08:25:49;;;;;;;4.55;2.40;;;;;;;6.75;64.41;99037.46;1671539;85;21636;-63
2021/03/01 08:28:44;;;;;;;4.78;2.33;;;;;;;6.74;64.23;99040.95;1685817;83;21194;-62
2021/03/01 08:31:21;;;;;;;4.87;2.77;;;;;;;6.75;64.15;99048.24;1660895;85;21165;-63
2021/03/01 08:33:49;;;;;;;3.20;2.17;;;;;;;6.79;63.76;99046.69;1659837;85;21665;-62
2021/03/01 08:36:22;;;;;;;4.55;2.40;;;;;;;6.86;63.57;99047.97;1670950;85;21177;-63
2021/03/01 08:38:54;;;;;;;4.00;2.70;;;;;;;7.01;63.56;99049.61;1677342;83;21291;-63
2021/03/01 08:41:37;;;;;;;5.42;2.58;;;;;;;7.09;63.95;99053.84;1660601;85;21634;-63
2021/03/01 08:44:22;;;;;;;6.75;2.75;;;;;;;7.12;63.64;99054.94;1695510;83;21170;-65
2021/03/01 08:46:50;;;;;;;3.15;1.92;;;;;;;7.26;63.57;99063.14;1657823;85;21205;-63
2021/03/01 08:49:43;;;;;;;3.35;2.42;;;;;;;7.37;63.01;99056.84;1695918;83;21178;-63
2021/03/01 08:52:13;;;;;;;6.05;2.12;;;;;;;7.45;62.88;99059.78;1722205;82;21220;-62
2021/03/01 08:54:42;;;;;;;4.80;2.27;;;;;;;7.54;62.46;99057.08;1747212;81;21171;-62
2021/03/01 08:57:11;;;;;;;4.28;2.47;;;;;;;7.55;62.41;99050.96;1749617;81;21227;-63
2021/03/01 08:59:39;;;;;;;4.85;2.67;;;;;;;7.63;62.23;99050.02;1744098;81;21210;-63
2021/03/01 09:02:07;;;;;;;5.95;2.40;;;;;;;7.66;61.50;99043.84;1750763;80;21604;-65
2021/03/01 09:04:36;;;;;;;5.28;2.37;;;;;;;7.83;61.85;99045.69;1749222;81;21159;-64
2021/03/01 09:07:07;;;;;;;6.65;2.45;;;;;;;8.17;62.13;99048.68;1748024;81;21203;-67
2021/03/01 09:09:50;;;;;;;4.25;2.65;;;;;;;8.62;62.56;99051.27;1747315;81;21183;-66
2021/03/01 09:12:20;;;;;;;4.03;2.20;;;;;;;9.00;59.05;99046.41;1756069;80;21166;-63
2021/03/01 09:14:49;;;;;;;6.15;2.72;;;;;;;9.68;62.20;99050.25;1755343;81;21158;-63
2021/03/01 09:17:17;;;;;;;4.40;2.25;;;;;;;10.23;58.29;99049.17;1755725;80;21171;-63
2021/03/01 09:19:45;;;;;;;8.18;2.30;;;;;;;10.64;57.73;99051.73;1750086;81;21599;-64
2021/03/01 09:22:13;;;;;;;5.62;2.92;;;;;;;11.13;60.18;99045.70;1742000;80;21155;-69
2021/03/01 09:24:41;;;;;;;7.60;2.65;;;;;;;11.64;56.69;99044.66;1746791;81;21172;-63
2021/03/01 09:27:09;;;;;;;4.55;2.17;;;;;;;12.03;52.42;99046.31;1744536;81;21176;-64
2021/03/01 09:29:38;;;;;;;6.10;2.60;;;;;;;12.43;48.88;99052.98;1736994;82;21128;-63
2021/03/01 09:32:07;;;;;;;3.83;2.40;;;;;;;12.57;50.90;99045.66;1734403;81;21152;-64
2021/03/01 09:34:36;;;;;;;3.83;2.02;;;;;;;12.78;53.05;99051.67;1744357;81;21200;-67
2021/03/01 09:37:08;;;;;;;5.45;2.60;;;;;;;13.07;51.65;99053.08;1738071;81;21188;-63
2021/03/01 09:39:38;;;;;;;5.60;3.08;;;;;;;13.24;48.38;99047.75;1738296;80;21242;-64
2021/03/01 09:42:07;;;;;;;4.83;2.67;;;;;;;12.84;43.72;99055.05;1747646;81;21152;-63
2021/03/01 09:44:36;;;;;;;5.72;2.83;;;;;;;13.31;48.40;99060.60;1747274;81;21136;-63
2021/03/01 09:47:10;;;;;;;4.50;2.60;;;;;;;13.22;44.63;99058.81;1744627;81;21167;-63
2021/03/01 09:49:39;;;;;;;3.72;2.40;;;;;;;12.62;44.03;99052.62;1743573;81;21176;-63
2021/03/01 09:52:07;;;;;;;2.90;2.15;;;;;;;13.15;45.70;99065.52;1747602;81;21199;-63
2021/03/01 09:54:39;;;;;;;3.30;2.27;;;;;;;13.87;43.19;99063.46;1741853;81;21140;-64
2021/03/01 09:57:09;;;;;;;2.65;1.55;;;;;;;14.47;44.93;99058.92;1743093;81;21179;-64
2021/03/01 09:59:41;;;;;;;4.60;1.85;;;;;;;14.94;46.22;99052.71;1741382;81;21584;-66
2021/03/01 10:02:20;;;;;;;3.60;2.10;;;;;;;15.04;41.40;99067.08;1744119;81;21179;-63
2021/03/01 10:04:49;;;;;;;4.42;2.08;;;;;;;14.36;39.52;99063.01;1727914;82;21173;-63
2021/03/01 10:07:22;;;;;;;7.78;2.50;;;;;;;13.36;40.30;99072.78;1709297;83;21222;-64
2021/03/01 10:09:53;;;;;;;5.67;1.90;;;;;;;13.09;41.53;99072.05;1715381;82;21168;-63
2021/03/01 10:12:23;;;;;;;4.10;2.00;;;;;;;13.86;42.90;99067.50;1721466;82;21605;-63
2021/03/01 10:14:59;;;;;;;2.65;1.70;;;;;;;14.59;40.67;99060.42;1705513;82;21600;-64
2021/03/01 10:17:31;;;;;;;4.33;1.70;;;;;;;15.17;40.86;99062.34;1727773;82;21171;-63
2021/03/01 10:20:30;;;;;;;4.17;1.65;;;;;;;15.45;40.04;99060.52;1729350;82;21211;-64
2021/03/01 10:23:07;;;;;;;2.60;1.80;;;;;;;15.34;36.12;99062.03;1712258;81;21167;-63
2021/03/01 10:25:42;;;;;;;5.53;1.82;;;;;;;15.00;35.99;99065.71;1689105;83;21576;-64
2021/03/01 10:28:46;;;;;;;4.60;2.08;;;;;;;14.73;35.75;99065.19;1730222;82;21270;-63
2021/03/01 10:31:17;;;;;;;2.17;1.17;;;;;;;13.85;37.52;99066.67;1624312;85;21191;-63
2021/03/01 10:34:05;;;;;;;3.62;1.70;;;;;;;14.28;37.36;99071.00;1690454;84;21267;-67
2021/03/01 10:36:54;;;;;;;3.40;1.50;;;;;;;13.94;38.50;99072.39;1692117;84;21202;-64
2021/03/01 10:39:28;;;;;;;4.10;1.82;;;;;;;13.22;37.97;99077.08;1694984;83;21159;-65
2021/03/01 10:42:01;;;;;;;12.10;3.27;;;;;;;13.47;38.47;99073.14;1694946;84;21183;-64
2021/03/01 10:44:32;;;;;;;4.40;2.02;;;;;;;12.47;40.54;99074.75;1685451;83;21155;-63
2021/03/01 10:47:17;;;;;;;7.28;2.30;;;;;;;12.50;40.20;99076.26;1693747;84;21574;-64
2021/03/01 10:49:52;;;;;;;1.95;1.32;;;;;;;12.95;41.20;99078.92;1694999;84;21575;-64
2021/03/01 10:52:23;;;;;;;2.15;1.30;;;;;;;12.94;38.43;99068.62;1696899;84;21191;-62
2021/03/01 10:54:54;;;;;;;2.67;1.50;;;;;;;13.91;39.21;99064.84;1696874;84;21600;-64
2021/03/01 10:57:25;;;;;;;2.42;1.20;;;;;;;14.29;39.22;99063.99;1696984;84;21151;-64
2021/03/01 10:59:55;;;;;;;2.17;1.32;;;;;;;14.48;38.49;99065.30;1697180;84;21147;-63
2021/03/01 11:02:23;;;;;;;3.10;1.27;;;;;;;14.16;35.19;99064.27;1697038;84;21231;-63
2021/03/01 11:04:52;;;;;;;3.12;1.40;;;;;;;14.18;35.32;99066.28;1696934;84;21159;-64
2021/03/01 11:07:20;;;;;;;1.98;1.62;;;;;;;14.50;34.37;99067.79;1697057;84;21246;-64
2021/03/01 11:09:48;;;;;;;4.03;1.98;;;;;;;14.15;34.51;99064.43;1695001;83;21238;-64
2021/03/01 11:12:16;;;;;;;3.60;1.75;;;;;;;13.31;36.13;99070.56;1697008;84;21647;-64
2021/03/01 11:14:44;;;;;;;3.17;1.92;;;;;;;13.59;35.16;99066.38;1692324;84;21183;-64
2021/03/01 11:17:13;;;;;;;2.05;1.30;;;;;;;13.82;35.27;99063.52;1697228;84;21204;-64
2021/03/01 11:19:41;;;;;;;2.58;1.40;;;;;;;15.26;32.74;99058.84;1690955;84;21183;-64
2021/03/01 11:22:10;;;;;;;4.72;1.15;;;;;;;16.20;30.62;99064.56;1696895;84;21199;-64
2021/03/01 11:24:38;;;;;;;4.10;1.55;;;;;;;16.93;33.04;99060.66;1696041;84;21619;-64
2021/03/01 11:27:06;;;;;;;3.30;2.02;;;;;;;17.07;31.18;99062.72;1696555;84;21182;-64
2021/03/01 11:29:34;;;;;;;3.08;1.15;;;;;;;16.06;32.19;99062.83;1693771;84;21144;-64
2021/03/01 11:32:02;;;;;;;4.72;1.82;;;;;;;15.97;32.23;99057.66;1682762;84;21171;-63
2021/03/01 11:34:34;;;;;;;6.25;2.20;;;;;;;15.21;33.08;99063.70;1697193;84;21182;-64
2021/03/01 11:37:02;;;;;;;4.15;2.02;;;;;;;14.61;33.65;99064.53;1696920;84;21191;-63
2021/03/01 11:39:30;;;;;;;2.45;1.72;;;;;;;14.02;34.60;99066.00;1696787;84;21237;-63
2021/03/01 11:41:58;;;;;;;2.37;1.82;;;;;;;13.99;34.72;99063.67;1696836;84;21215;-64
2021/03/01 11:44:26;;;;;;;3.90;1.77;;;;;;;13.79;35.29;99069.36;1696610;84;21171;-65
2021/03/01 11:46:54;;;;;;;10.30;1.62;;;;;;;12.98;36.83;99072.61;1696912;84;21607;-63
2021/03/01 11:49:22;;;;;;;5.30;1.85;;;;;;;13.15;36.73;99070.73;1692002;83;22293;-62
2021/03/01 11:51:50;;;;;;;4.03;1.65;;;;;;;13.00;36.68;99068.08;1695851;84;21245;-61
2021/03/01 11:54:18;;;;;;;3.08;1.22;;;;;;;12.97;36.64;99066.57;1700401;84;21231;-64
2021/03/01 11:56:47;;;;;;;3.22;1.50;;;;;;;13.15;36.55;99063.71;1701353;84;21600;-61
2021/03/01 11:59:15;;;;;;;2.92;1.77;;;;;;;12.90;36.25;99071.97;1701097;84;21719;-63
2021/03/01 12:01:43;;;;;;;1.82;1.10;;;;;;;13.14;36.97;99071.69;1700616;84;21254;-62
2021/03/01 12:04:12;;;;;;;2.45;1.02;;;;;;;13.72;36.88;99066.13;1702553;83;21262;-63
2021/03/01 12:06:40;;;;;;;1.47;1.00;;;;;;;14.52;34.00;99059.31;1689343;82;21218;-63
2021/03/01 12:09:08;;;;;;;1.35;1.20;;;;;;;14.84;34.40;99061.56;1684326;83;21646;-64
2021/03/01 12:11:36;;;;;;;2.80;0.78;;;;;;;14.72;33.81;99062.22;1692983;83;21556;-61
2021/03/01 12:14:05;;;;;;;2.00;1.00;;;;;;;14.86;34.28;99063.09;1674286;84;21154;-64
2021/03/01 12:16:33;;;;;;;1.32;1.00;;;;;;;14.48;33.04;99065.30;1671690;84;21634;-61
2021/03/01 12:19:01;;;;;;;3.75;1.30;;;;;;;14.05;33.72;99060.97;1642576;85;21238;-64
2021/03/01 12:21:51;;;;;;;1.20;1.00;;;;;;;14.18;33.63;99062.36;1692256;84;21192;-64